Merksplas, Belgium
Current Conditions -  °F | °C
As of 10:00 AM on Wednesday 28 Jan 2015 (Local Time) from EHGR Reporting Station
Haze Haze  
Wind Chill: 35°   Ceiling: 800
Heat Index: 43°   Visibility: 2.7mi
Dew Point: 41°   Wind: 17mph
Humidity: 93%   Direction: 210°SSW
Pressure: 29.77"   Gusts: 30mph
Location:  51.36°N, 4.87°E
Report Text: EHGR 280900Z AUTO 21015G26KT 4400 BR BKN008 OVC009 06/05 Q1008 GRN 21015KT 9999 SCT025 BKN030 TEMPO 4500 -RADZ SCT008 BKN010
Loading
Personal Weather Stations






























Interactive Weather Map New forecast layout! Learn more

10-Day Weather Forecast

Advertisements
Track Severe Weather on mobile